Home > Products > Valid Products > MTR

000
SAUS45 KABQ 302357
MTRTCS
METAR KTCS 302353Z AUTO 17010KT 10SM CLR 27/M01 A2986 RMK AO2 SLP039
T02671006 10272 20217 56011 TSNO





000
SAUS45 KABQ 302354
MTRCQC
METAR KCQC 302353Z AUTO 28017G26KT 10SM CLR 18/M01 A2998 RMK AO2 PK
WND 27027/2322 SLP085 T01781011 10200 20167 56003





000
SAUS45 KABQ 302352
MTRABQ
METAR KABQ 302352Z 29006KT 10SM FEW090 24/M01 A2991 RMK AO2 SLP062
T02391011 10244 20183 56011 $





000
SAUS45 KABQ 302257
MTRTCS
METAR KTCS 302253Z AUTO 15004KT 10SM CLR 27/M01 A2987 RMK AO2 SLP040
T02671011 TSNO





000
SAUS45 KABQ 302255
MTRCQC
METAR KCQC 302253Z AUTO 26019G25KT 10SM CLR 19/M01 A2998 RMK AO2 PK
WND 27030/2238 SLP086 T01891006





000
SAUS45 KABQ 302252
MTRABQ
METAR KABQ 302252Z VRB04KT 10SM FEW090 23/M01 A2991 RMK AO2 SLP068
T02331011 $





000
SAUS45 KABQ 302200 COR
MTRCQC
METAR KCQC 302153Z AUTO 27019G27KT 10SM CLR 19/M01 A2998 RMK AO2 PK
WND 27027/2127 SLP082 T01941011





000
SAUS45 KABQ 302157
MTRTCS
METAR KTCS 302153Z AUTO 18006KT 10SM CLR 27/01 A2988 RMK AO2 SLP043
T02670006 TSNO





000
SAUS45 KABQ 302156 COR
MTRCQC
METAR KCQC 302153Z AUTO 27019G27KT 10SM CLR 19/M01 A2998 RMK AO2 PK
WND 27027/2127 SLP082 T01941011





000
SAUS45 KABQ 302155 COR
MTRCQC
METAR KCQC 302153Z AUTO 27019G27KT 10SM CLR 19/M01 A2998 RMK AO2 PK
WND 27027/2127 SLP082 T01941011





000
SAUS45 KABQ 302154
MTRCQC
METAR KCQC 302153Z AUTO 27019G27KT 10SM CLR 19/M01 A2998 RMK AO2 PK
WND 27027/2127 SLP082 T01941011





000
SAUS45 KABQ 302152
MTRABQ
METAR KABQ 302152Z 22004KT 10SM FEW090 23/M01 A2992 RMK AO2 SLP074
T02281006





000
SAUS45 KABQ 302057
MTRTCS
METAR KTCS 302053Z AUTO 19009G17KT 150V220 10SM CLR 26/01 A2990 RMK
AO2 SLP049 T02560011 58026 TSNO





000
SAUS45 KABQ 302056 COR
MTRCQC
METAR KCQC 302053Z AUTO 28019G25KT 10SM CLR 19/M02 A2999 RMK AO2 PK
WND 26027/2030 SLP081 T01941022 58015





000
SAUS45 KABQ 302055 COR
MTRCQC
METAR KCQC 302053Z AUTO 28019G25KT 10SM CLR 19/M02 A2999 RMK AO2 PK
WND 26027/2030 SLP081 T01941022 58015





000
SAUS45 KABQ 302054
MTRCQC
METAR KCQC 302053Z AUTO 28019G25KT 10SM CLR 19/M02 A2999 RMK AO2 PK
WND 26027/2030 SLP081 T01941022 58015





000
SAUS45 KABQ 302052
MTRABQ
METAR KABQ 302052Z 33011KT 10SM FEW090 23/M01 A2995 RMK AO2 SLP075
T02331006 56025





000
SAUS45 KABQ 301957
MTRTCS
METAR KTCS 301953Z AUTO 10SM CLR 24/03 A2993 RMK AO2 SLP060
T02440028 TSNO





000
SAUS45 KABQ 301954
MTRCQC
METAR KCQC 301953Z AUTO 26011KT 10SM CLR 19/M01 A3000 RMK AO2 SLP083
T01941011





000
SAUS45 KABQ 301953
MTRABQ
METAR KABQ 301952Z 31009G15KT 10SM FEW090 22/M01 A2997 RMK AO2
SLP085 T02171006





000
SAUS45 KABQ 301857
MTRTCS
METAR KTCS 301853Z AUTO 20007KT 10SM CLR 23/02 A2996 RMK AO2 SLP073
T02330022 TSNO





000
SAUS45 KABQ 301854
MTRCQC
METAR KCQC 301853Z AUTO 29013G27KT 10SM CLR 18/M01 A3003 RMK AO2 PK
WND 27027/1850 SLP096 T01831006





000
SAUS45 KABQ 301853
MTRABQ
METAR KABQ 301852Z 00000KT 10SM CLR 20/M01 A3000 RMK AO2 SLP098
T02001006





000
SAUS45 KABQ 301757
MTRTCS
METAR KTCS 301753Z AUTO 00000KT 10SM CLR 22/03 A2999 RMK AO2 SLP084
T02170033 10217 20117 58010 TSNO





000
SAUS45 KABQ 301754
MTRCQC
METAR KCQC 301753Z AUTO 30017G22KT 10SM CLR 17/M01 A3004 RMK AO2 PK
WND 29030/1720 SLP103 T01671011 10167 20050 $





000
SAUS45 KABQ 301753
MTRABQ
METAR KABQ 301752Z VRB03KT 10SM CLR 18/M01 A3003 RMK AO2 SLP108
T01831006 10183 20078 58009 $





000
SAUS45 KABQ 301654
MTRTCS
METAR KTCS 301653Z AUTO 00000KT 10SM CLR 20/04 A3001 RMK AO2 SLP095
T02000039 TSNO





000
SAUS45 KABQ 301654
MTRCQC
METAR KCQC 301653Z AUTO 30018KT 10SM CLR 16/M01 A3005 RMK AO2 SLP105
T01561006





000
SAUS45 KABQ 301653
MTRABQ
METAR KABQ 301652Z 29005KT 10SM CLR 16/01 A3005 RMK AO2 SLP117
T01610011 $





000
SAUS45 KABQ 301554
MTRTCS
METAR KTCS 301553Z AUTO 00000KT 10SM CLR 19/03 A3002 RMK AO2 SLP096
T01890033 TSNO





000
SAUS45 KABQ 301554
MTRCQC
METAR KCQC 301553Z AUTO 31015KT 10SM CLR 13/00 A3005 RMK AO2 SLP108
T01330000





000
SAUS45 KABQ 301553
MTRABQ
METAR KABQ 301552Z 00000KT 10SM CLR 13/02 A3006 RMK AO2 SLP121
T01330022





000
SAUS45 KABQ 301454
MTRTCS
METAR KTCS 301453Z AUTO 36004KT 10SM CLR 17/04 A3003 RMK AO2 SLP098
T01670044 51008 TSNO





000
SAUS45 KABQ 301454
MTRCQC
METAR KCQC 301453Z AUTO 29013KT 10SM CLR 11/01 A3005 RMK AO2 SLP112
T01060006 50001





000
SAUS45 KABQ 301453
MTRABQ
METAR KABQ 301452Z 00000KT 10SM CLR 12/03 A3006 RMK AO2 SLP123
T01220028 51004





000
SAUS45 KABQ 301354
MTRTCS
METAR KTCS 301353Z AUTO 35004KT 10SM CLR 13/04 A3002 RMK AO2 SLP101
T01330044 TSNO





000
SAUS45 KABQ 301354
MTRCQC
METAR KCQC 301353Z AUTO 29012KT 10SM CLR 08/00 A3005 RMK AO2 SLP118
T00780000





000
SAUS45 KABQ 301353
MTRABQ
METAR KABQ 301352Z 00000KT 10SM CLR 10/03 A3006 RMK AO2 SLP125
T01000028





000
SAUS45 KABQ 301254
MTRCQC
METAR KCQC 301253Z AUTO 29012KT 10SM CLR 06/00 A3005 RMK AO2 SLP119
T00560000





000
SAUS45 KABQ 301254
MTRTCS
METAR KTCS 301253Z AUTO 34005KT 10SM CLR 13/04 A3001 RMK AO2 SLP093
T01280044 TSNO





000
SAUS45 KABQ 301253
MTRABQ
METAR KABQ 301252Z 00000KT 10SM CLR 10/02 A3006 RMK AO2 SLP119
T01000017





000
SAUS45 KABQ 301154
MTRCQC
METAR KCQC 301153Z AUTO 29011KT 10SM CLR 06/01 A3005 RMK AO2 SLP111
70021 T00560006 10089 20033 56005





000
SAUS45 KABQ 301154
MTRTCS
METAR KTCS 301153Z AUTO 31006KT 10SM CLR 14/06 A3000 RMK AO2 SLP086
T01390056 10183 20139 53003 TSNO





000
SAUS45 KABQ 301153
MTRABQ
METAR KABQ 301152Z 06004KT 10SM CLR 11/02 A3005 RMK AO2 SLP112 70001
T01110022 10161 20083 55001 $





000
SAUS45 KABQ 301054
MTRCQC
METAR KCQC 301053Z AUTO 30007KT 10SM CLR 04/01 A3005 RMK AO2 SLP113
T00440006





000
SAUS45 KABQ 301054
MTRTCS
METAR KTCS 301053Z AUTO 00000KT 10SM CLR 15/06 A2999 RMK AO2 SLP081
T01500061 TSNO





000
SAUS45 KABQ 301053
MTRABQ
METAR KABQ 301052Z 00000KT 10SM CLR 10/02 A3004 RMK AO2 SLP113
T01000022 $





000
SAUS45 KABQ 300954
MTRCQC
METAR KCQC 300953Z AUTO 31008KT 10SM CLR 06/01 A3006 RMK AO2 SLP126
T00560006





000
SAUS45 KABQ 300954
MTRTCS
METAR KTCS 300953Z AUTO 00000KT 10SM CLR 16/07 A2999 RMK AO2 SLP078
T01560067 TSNO





000
SAUS45 KABQ 300953
MTRABQ
METAR KABQ 300952Z 13004KT 10SM CLR 09/02 A3005 RMK AO2 SLP114
T00940022 $





000
SAUS45 KABQ 300855
MTRTCS
METAR KTCS 300853Z AUTO 32009KT 10SM CLR 17/07 A2999 RMK AO2 SLP077
T01670067 53001 TSNO





000
SAUS45 KABQ 300854
MTRCQC
METAR KCQC 300853Z AUTO 30010KT 10SM CLR 07/01 A3007 RMK AO2 SLP105
T00670006 56004





000
SAUS45 KABQ 300852
MTRABQ
METAR KABQ 300852Z 32004KT 10SM CLR 12/02 A3005 RMK AO2 SLP112
T01220022 53001 $





000
SAUS45 KABQ 300755
MTRTCS
METAR KTCS 300753Z AUTO 31008KT 10SM CLR 18/07 A2998 RMK AO2 SLP071
T01780067 TSNO





000
SAUS45 KABQ 300754
MTRCQC
METAR KCQC 300753Z AUTO 30011KT 10SM CLR 07/01 A3007 RMK AO2 SLP102
T00720011





000
SAUS45 KABQ 300752
MTRABQ
METAR KABQ 300752Z 27006KT 10SM CLR 13/02 A3005 RMK AO2 SLP109
T01330017 $





000
SAUS45 KABQ 300654
MTRTCS
METAR KTCS 300653Z AUTO 30008KT 10SM CLR 18/07 A2998 RMK AO2 SLP073
T01780072 402780139 TSNO





000
SAUS45 KABQ 300654
MTRCQC
METAR KCQC 300653Z AUTO 30013KT 10SM CLR 08/02 A3006 RMK AO2 SLP101
T00830017 402330078





000
SAUS45 KABQ 300652
MTRABQ
METAR KABQ 300652Z 29008KT 10SM CLR 14/01 A3005 RMK AO2 SLP105
T01390011 402500139 $





000
SAUS45 KABQ 300555
MTRTCS
METAR KTCS 300553Z AUTO 33005KT 10SM CLR 18/08 A2998 RMK AO2 SLP076
T01780083 10267 20178 51005 TSNO





000
SAUS45 KABQ 300554
MTRCQC
METAR KCQC 300553Z AUTO 30011KT 10SM CLR 09/02 A3008 RMK AO2 SLP108
60007 T00890022 10172 20089 50005





000
SAUS45 KABQ 300552
MTRABQ
METAR KABQ 300552Z 33008KT 10SM CLR 16/M01 A3005 RMK AO2 SLP107
T01611006 10244 20161 51010 $





000
SAUS45 KABQ 300454
MTRTCS
METAR KTCS 300453Z AUTO 30008KT 10SM CLR 19/10 A2998 RMK AO2 SLP078
T01890100 TSNO





000
SAUS45 KABQ 300454
MTRCQC
METAR KCQC 300453Z AUTO 31013KT 10SM CLR 10/02 A3008 RMK AO2 SLP108
T01000022





000
SAUS45 KABQ 300452
MTRABQ
METAR KABQ 300452Z 35009KT 10SM FEW100 17/00 A3005 RMK AO2 SLP105
T01720000 $





000
SAUS45 KABQ 300354
MTRCQC
METAR KCQC 300353Z AUTO 31011KT 10SM CLR 12/02 A3008 RMK AO2 SLP109
T01170022





000
SAUS45 KABQ 300354
MTRTCS
METAR KTCS 300353Z AUTO 27005KT 10SM CLR 21/09 A2998 RMK AO2 SLP076
T02060089 TSNO





000
SAUS45 KABQ 300353
MTRABQ
METAR KABQ 300352Z 01012KT 10SM FEW100 18/01 A3004 RMK AO2 SLP103
T01830006 $





000
SAUS45 KABQ 300254
MTRTCS
METAR KTCS 300253Z AUTO 00000KT 10SM CLR 22/09 A2997 RMK AO2 SLP075
T02170089 53010 TSNO





000
SAUS45 KABQ 300254
MTRCQC
METAR KCQC 300253Z AUTO 31011KT 10SM CLR 12/04 A3006 RMK AO2 SLP109
60007 T01220044 53012





000
SAUS45 KABQ 300253
MTRABQ
METAR KABQ 300252Z 01009G20KT 10SM FEW100 19/00 A3001 RMK AO2 SLP096
T01940000 53018 $





000
SAUS45 KABQ 300154
MTRCQC
METAR KCQC 300153Z AUTO 28010KT 10SM CLR 13/07 A3005 RMK AO2 SLP105
T01330067





000
SAUS45 KABQ 300154
MTRTCS
METAR KTCS 300153Z AUTO 22004KT 10SM CLR 22/10 A2994 RMK AO2 SLP071
T02220100 TSNO





000
SAUS45 KABQ 300153
MTRABQ
METAR KABQ 300152Z 35007KT 10SM FEW110 21/M03 A2999 RMK AO2 SLP087
T02111028 $





000
SAUS45 KABQ 300055
MTRTCS
METAR KTCS 300053Z AUTO 23009KT 10SM CLR 26/09 A2994 RMK AO2 SLP066
T02560089 TSNO





000
SAUS45 KABQ 300054
MTRCQC
METAR KCQC 300053Z AUTO 29013KT 10SM FEW065 14/08 A3002 RMK AO2
RAB03E17 SLP097 P0007 T01440083





000
SAUS45 KABQ 300053
MTRABQ
METAR KABQ 300052Z 30016KT 10SM FEW065 FEW110 23/M01 A2997 RMK AO2
SLP079 T02281011 $





000
SAUS45 KABQ 300004 COR
MTRCQC
METAR KCQC 292353Z AUTO 21023G29KT 10SM FEW070 SCT095 17/12 A3002
RMK AO2 PK WND 23032/2259 SLP091 60014 T01720117 10233 20128 58005





000
SAUS45 KABQ 300003 COR
MTRCQC
METAR KCQC 292353Z AUTO 21023G29KT 10SM FEW070 SCT095 17/12 A3002
RMK AO2 PK WND 23032/2259 SLP091 60014 T01720117 10233 20128 58005





000
SAUS45 KABQ 300001 COR
MTRCQC
METAR KCQC 292353Z AUTO 21023G29KT 10SM FEW070 SCT095 17/12 A3002
RMK AO2 PK WND 23032/2259 SLP091 60014 T01720117 10233 20128 58005





000
SAUS45 KABQ 300000 COR
MTRCQC
METAR KCQC 292353Z AUTO 21023G29KT 10SM FEW070 SCT095 17/12 A3002
RMK AO2 PK WND 23032/2259 SLP091 60014 T01720117 10233 20128 58005





000
SAUS45 KABQ 292359 COR
MTRCQC
METAR KCQC 292353Z AUTO 21023G29KT 10SM FEW070 SCT095 17/12 A3002
RMK AO2 PK WND 23032/2259 SLP091 60014 T01720117 10233 20128 58005





000
SAUS45 KABQ 292356 COR
MTRCQC
METAR KCQC 292353Z AUTO 21023G29KT 10SM FEW070 SCT095 17/12 A3002
RMK AO2 PK WND 23032/2259 SLP091 60014 T01720117 10233 20128 58005





000
SAUS45 KABQ 292355 COR
MTRCQC
METAR KCQC 292353Z AUTO 21023G29KT 10SM FEW070 SCT095 17/12 A3002
RMK AO2 PK WND 23032/2259 SLP091 60014 T01720117 10233 20128 58005





000
SAUS45 KABQ 292354
MTRCQC
METAR KCQC 292353Z AUTO 21023G29KT 10SM FEW070 SCT095 17/12 A3002
RMK AO2 PK WND 23032/2259 SLP091 60014 T01720117 10233 20128 58005





000
SAUS45 KABQ 292354
MTRTCS
METAR KTCS 292353Z AUTO 21009KT 10SM SCT090 27/11 A2993 RMK AO2
SLP060 60000 T02670106 10278 20239 56008 TSNO





000
SAUS45 KABQ 292353
MTRABQ
METAR KABQ 292352Z 29017G25KT 10SM FEW060 FEW110 24/03 A2995 RMK AO2
PK WND 27029/2322 SLP070 60001 T02440033 10250 20172 53001 $





000
SAUS45 KABQ 292254
MTRCQC
METAR KCQC 292253Z AUTO 22024G31KT 10SM FEW041 FEW049 19/12 A3002
RMK AO2 PK WND 26033/2205 WSHFT 2140 RAE19 SLP086 P0011 T01890117





000
SAUS45 KABQ 292254
MTRTCS
METAR KTCS 292253Z AUTO 21015KT 10SM BKN075 BKN095 27/11 A2994 RMK
AO2 SLP062 T02670111 TSNO





000
SAUS45 KABQ 292252
MTRABQ
METAR KABQ 292252Z 27016G24KT 10SM FEW060 SCT100 24/05 A2994 RMK AO2
PK WND 29035/2204 WSHFT 2153 SLP064 T02440050 $





000
SAUS45 KABQ 292217
MTRCQC
SPECI KCQC 292216Z AUTO 24011KT 5SM -RA FEW025 BKN034 OVC060 14/11
A3005 RMK AO2 PK WND 26033/2205 WSHFT 2140 P0011 T01440111





000
SAUS45 KABQ 292213
MTRABQ
SPECI KABQ 292213Z 30022G35KT 10SM FEW060 SCT100 23/06 A2994 RMK AO2
PK WND 29035/2204 WSHFT 2153 T02330056





000
SAUS45 KABQ 292208
MTRCQC
SPECI KCQC 292207Z AUTO 23023G33KT 1 3/4SM +RA BR BKN031 BKN040
OVC055 13/11 A3005 RMK AO2 PK WND 26033/2205 WSHFT 2140 P0003
T01330111





000
SAUS45 KABQ 292206 COR
MTRCQC
SPECI KCQC 292200Z AUTO 24019G22KT 10SM -RA SCT030 BKN040 OVC048
13/11 A3005 RMK AO2 WSHFT 2140 P0000 T01330106





000
SAUS45 KABQ 292205 COR
MTRCQC
SPECI KCQC 292200Z AUTO 24019G22KT 10SM -RA SCT030 BKN040 OVC048
13/11 A3005 RMK AO2 WSHFT 2140 P0000 T01330106





000
SAUS45 KABQ 292203 COR
MTRCQC
SPECI KCQC 292200Z AUTO 24019G22KT 10SM -RA SCT030 BKN040 OVC048
13/11 A3005 RMK AO2 WSHFT 2140 P0000 T01330106





000
SAUS45 KABQ 292202 COR
MTRCQC
SPECI KCQC 292200Z AUTO 24019G22KT 10SM -RA SCT030 BKN040 OVC048
13/11 A3005 RMK AO2 WSHFT 2140 P0000 T01330106





000
SAUS45 KABQ 292201
MTRCQC
SPECI KCQC 292200Z AUTO 24019G22KT 10SM -RA SCT030 BKN040 OVC048
13/11 A3005 RMK AO2 WSHFT 2140 P0000 T01330106





000
SAUS45 KABQ 292159 COR
MTRCQC
METAR KCQC 292153Z AUTO 27016G25KT 7SM RA SCT030 BKN040 OVC060 13/10
A3005 RMK AO2 PK WND 22034/2103 WSHFT 2133 RAE01B23 SLP110 P0003
T01280100





000
SAUS45 KABQ 292156 COR
MTRCQC
METAR KCQC 292153Z AUTO 27016G25KT 7SM RA SCT030 BKN040 OVC060 13/10
A3005 RMK AO2 PK WND 22034/2103 WSHFT 2133 RAE01B23 SLP110 P0003
T01280100





000
SAUS45 KABQ 292155 COR
MTRCQC
METAR KCQC 292153Z AUTO 27016G25KT 7SM RA SCT030 BKN040 OVC060 13/10
A3005 RMK AO2 PK WND 22034/2103 WSHFT 2133 RAE01B23 SLP110 P0003
T01280100





000
SAUS45 KABQ 292154
MTRCQC
METAR KCQC 292153Z AUTO 27016G25KT 7SM RA SCT030 BKN040 OVC060 13/10
A3005 RMK AO2 PK WND 22034/2103 WSHFT 2133 RAE01B23 SLP110 P0003
T01280100





000
SAUS45 KABQ 292154
MTRTCS
METAR KTCS 292153Z AUTO 25015G21KT 10SM CLR 27/11 A2994 RMK AO2 PK
WND 21030/2058 WSHFT 2102 RAE15 SLP057 P0000 T02720106 TSNO





000
SAUS45 KABQ 292152
MTRABQ
METAR KABQ 292152Z 21012KT 10SM FEW060 BKN100 25/10 A2994 RMK AO2 PK
WND 18030/2057 LTG DSNT NE SLP063 VCSH NW-N T02500100





000
SAUS45 KABQ 292123
MTRTCS
SPECI KTCS 292122Z AUTO 27015G20KT 10SM BKN065 BKN090 26/11 A2995
RMK AO2 PK WND 21030/2058 WSHFT 2102 RAE15 P0000 T02610111 TSNO





000
SAUS45 KABQ 292057 COR
MTRTCS
METAR KTCS 292053Z AUTO 21015G28KT 10SM -RA BKN065 BKN095 BKN110
26/12 A2996 RMK AO2 PK WND 17034/1956 RAB41 SLP067 P0000 60000
T02610122 56023 TSNO





000
SAUS45 KABQ 292055 COR
MTRTCS
METAR KTCS 292053Z AUTO 21015G28KT 10SM -RA BKN065 BKN095 BKN110
26/12 A2996 RMK AO2 PK WND 17034/1956 RAB41 SLP067 P0000 60000
T02610122 56023 TSNO





000
SAUS45 KABQ 292054
MTRCQC
METAR KCQC 292053Z AUTO 22028G41KT 10SM -RA FEW038 BKN070 BKN120
22/04 A3004 RMK AO2 PK WND 21041/2050 RAB51 SLP082 P0000 60000
T02170044 58026





000
SAUS45 KABQ 292052
MTRABQ
METAR KABQ 292052Z 18023G29KT 10SM FEW050 SCT080TCU 24/12 A2995 RMK
AO2 PK WND 19054/2006 LTG DSNT E AND SE RAE17 TSB09E25 SLP067 VIRGA
W TCU NW-N P0001 60001 T02390117 56029





000
SAUS45 KABQ 292043
MTRABQ
SPECI KABQ 292043Z 19020G26KT 10SM FEW050 SCT070 23/12 A2995 RMK AO2
PK WND 19054/2006 LTG DSNT E-S RAE17 TSB09E25 SHRA DSNT E-SE P0001
T02330117





000
SAUS45 KABQ 292025
MTRABQ
SPECI KABQ 292025Z 19012KT 10SM VCTS FEW030 FEW060CB SCT080 21/13
A2997 RMK AO2 PK WND 19054/2006 LTG DSNT ALQDS RAE17 TSB09E25 TS
NE-E-S MOV NE VCSH NE-E-S P0001 T02060128





000
SAUS45 KABQ 292009
MTRABQ
SPECI KABQ 292009Z 17026G54KT 7SM -TSRA SQ FEW034 SCT060CB BKN090
19/11 A2998 RMK AO2 PK WND 19054/2006 LTG DSNT S AND SW TSB09 TS OHD
MOV NE P0000 T01940106





000
SAUS45 KABQ 291958
MTRABQ
SPECI KABQ 291958Z 18019G24KT 10SM VCTS -RA FEW034 SCT065CB BKN090
BKN140 23/08 A2998 RMK AO2 LTG DSNT S AND SW TS S-SW MOV NE P0000
T02330078





000
SAUS45 KABQ 291955
MTRTCS
METAR KTCS 291953Z AUTO 19024G31KT 10SM CLR 27/13 A2997 RMK AO2 PK
WND 19031/1952 SLP066 T02720128 TSNO





000
SAUS45 KABQ 291954
MTRCQC
METAR KCQC 291953Z AUTO 22032G39KT 10SM FEW060 SCT075 BKN090 22/06
A3008 RMK AO2 PK WND 23039/1950 SLP096 T02220061





000
SAUS45 KABQ 291952
MTRABQ
METAR KABQ 291952Z 20018G24KT 10SM -RA FEW034 SCT070 BKN090 BKN140
24/07 A2998 RMK AO2 PK WND 18031/1926 LTG DSNT SW RAB30 SLP076 P0000
T02390072





000
SAUS45 KABQ 291856 COR
MTRCQC
METAR KCQC 291853Z AUTO 22023G36KT 10SM FEW060 22/06 A3011 RMK AO2
PK WND 21040/1757 SLP107 T02170061





000
SAUS45 KABQ 291855 COR
MTRCQC
METAR KCQC 291853Z AUTO 22023G36KT 10SM FEW060 22/06 A3011 RMK AO2
PK WND 21040/1757 SLP107 T02170061





000
SAUS45 KABQ 291855
MTRCQC
METAR KCQC 291853Z AUTO 22023G36KT 10SM FEW060 22/06 A3011 RMK AO2
PK WND 21040/1757 SLP107 T02170061





000
SAUS45 KABQ 291854
MTRTCS
METAR KTCS 291853Z AUTO 19017G25KT 10SM CLR 26/14 A3001 RMK AO2 PK
WND 17028/1833 SLP080 T02610139 TSNO





000
SAUS45 KABQ 291852
MTRABQ
METAR KABQ 291852Z 18020G34KT 10SM SCT070 BKN090 24/06 A3002 RMK AO2
PK WND 17034/1848 SLP085 VCSH N T02440061





000
SAUS45 KABQ 291800 COR
MTRCQC
METAR KCQC 291753Z AUTO 22027G35KT 10SM FEW044 21/07 A3014 RMK AO2
PK WND 22035/1752 SLP116 T02110072 10211 20106 58014





000
SAUS45 KABQ 291756 COR
MTRCQC
METAR KCQC 291753Z AUTO 22027G35KT 10SM FEW044 21/07 A3014 RMK AO2
PK WND 22035/1752 SLP116 T02110072 10211 20106 58014





000
SAUS45 KABQ 291755 COR
MTRCQC
METAR KCQC 291753Z AUTO 22027G35KT 10SM FEW044 21/07 A3014 RMK AO2
PK WND 22035/1752 SLP116 T02110072 10211 20106 58014





000
SAUS45 KABQ 291754
MTRTCS
METAR KTCS 291753Z AUTO 18015G22KT 10SM CLR 25/14 A3004 RMK AO2
SLP091 T02500139 10250 20139 58011 TSNO





000
SAUS45 KABQ 291754
MTRCQC
METAR KCQC 291753Z AUTO 22027G35KT 10SM FEW044 21/07 A3014 RMK AO2
PK WND 22035/1752 SLP116 T02110072 10211 20106 58014





000
SAUS45 KABQ 291752
MTRABQ
METAR KABQ 291752Z 20013G26KT 10SM FEW048 BKN070 23/07 A3005 RMK AO2
PK WND 19028/1736 SLP098 T02280067 10239 20150 58015





000
SAUS45 KABQ 291654
MTRCQC
METAR KCQC 291653Z AUTO 20018G23KT 10SM FEW027 FEW040 20/09 A3017
RMK AO2 SLP129 T02000094





000
SAUS45 KABQ 291654
MTRTCS
METAR KTCS 291653Z AUTO 18012G18KT 10SM SCT090 23/14 A3006 RMK AO2
SLP102 T02330139 TSNO





000
SAUS45 KABQ 291652
MTRABQ
METAR KABQ 291652Z 20013KT 10SM SCT046 SCT060 22/11 A3007 RMK AO2
SLP109 MTN TOPS OBSC NE T02170111





000
SAUS45 KABQ 291554
MTRTCS
METAR KTCS 291553Z AUTO 16006KT 10SM BKN080 21/13 A3008 RMK AO2
SLP110 T02110133 TSNO





000
SAUS45 KABQ 291554
MTRCQC
METAR KCQC 291553Z AUTO 21014KT 10SM SCT012 17/12 A3018 RMK AO2
SLP143 T01670117





000
SAUS45 KABQ 291553
MTRABQ
METAR KABQ 291552Z 21010KT 10SM FEW045 21/13 A3009 RMK AO2 SLP117
MTN TOPS OBSC NE T02060128





000
SAUS45 KABQ 291547
MTRCQC
SPECI KCQC 291545Z AUTO 21018KT 10SM SCT012 16/12 A3018 RMK AO2
T01610117





000
SAUS45 KABQ 291529
MTRCQC
SPECI KCQC 291528Z AUTO 22016KT 10SM SCT008 BKN012 BKN050 16/12
A3019 RMK AO2 T01560117





000
SAUS45 KABQ 291454
MTRCQC
METAR KCQC 291453Z AUTO 20014KT 10SM BKN005 14/12 A3019 RMK AO2 CIG
004V008 SLP150 T01390122 51003





000
SAUS45 KABQ 291454
MTRTCS
METAR KTCS 291453Z AUTO 00000KT 10SM CLR 19/12 A3007 RMK AO2 SLP112
T01890122 53007 TSNO





000
SAUS45 KABQ 291453
MTRABQ
METAR KABQ 291452Z 23006KT 10SM FEW045 FEW080 18/13 A3010 RMK AO2
SLP126 MTN TOPS OBSC NE T01780128 50004





000
SAUS45 KABQ 291425
MTRCQC
SPECI KCQC 291424Z AUTO 20016KT 10SM OVC004 13/12 A3019 RMK AO2
T01280122





000
SAUS45 KABQ 291354
MTRTCS
METAR KTCS 291353Z AUTO 31003KT 10SM CLR 16/12 A3007 RMK AO2 SLP112
T01560117 TSNO





000
SAUS45 KABQ 291354
MTRCQC
METAR KCQC 291353Z AUTO 20013KT 10SM BKN005 12/12 A3019 RMK AO2
SLP152 T01220117





000
SAUS45 KABQ 291353
MTRABQ
METAR KABQ 291352Z 15008KT 10SM FEW040 BKN075 16/12 A3010 RMK AO2
SLP124 MTN TOPS OBSC NE AND SE T01610117





000
SAUS45 KABQ 291349
MTRCQC
SPECI KCQC 291348Z AUTO 20013KT 10SM BKN006 12/12 A3018 RMK AO2





000
SAUS45 KABQ 291338
MTRCQC
SPECI KCQC 291337Z AUTO 20013KT 10SM SCT006 12/11 A3019 RMK AO2
T01220111





000
SAUS45 KABQ 291302
MTRCQC
SPECI KCQC 291301Z AUTO 18008KT 3SM BR OVC008 11/10 A3018 RMK AO2
T01110100





000
SAUS45 KABQ 291254
MTRTCS
METAR KTCS 291253Z AUTO 31004KT 10SM CLR 15/11 A3006 RMK AO2 SLP108
T01500111 TSNO





000
SAUS45 KABQ 291254
MTRCQC
METAR KCQC 291253Z AUTO 17007KT 1 1/4SM BR SCT004 OVC008 11/10 A3018
RMK AO2 SLP146 T01060100





000
SAUS45 KABQ 291253
MTRABQ
METAR KABQ 291252Z 13009KT 10SM FEW040 BKN075 15/11 A3009 RMK AO2
SLP120 MTN TOPS OBSC NE AND SE T01500106





000
SAUS45 KABQ 291245
MTRCQC
SPECI KCQC 291244Z AUTO 17007KT 1/2SM FG BKN003 OVC008 11/10 A3018
RMK AO2 T01060100





000
SAUS45 KABQ 291236
MTRCQC
SPECI KCQC 291235Z AUTO 17008KT 1/4SM FG VV002 11/10 A3017 RMK AO2
T01060100





000
SAUS45 KABQ 291154
MTRTCS
METAR KTCS 291153Z AUTO 04003KT 10SM CLR 16/12 A3005 RMK AO2 SLP102
T01560117 10200 20150 53002 TSNO





000
SAUS45 KABQ 291154
MTRCQC
METAR KCQC 291153Z AUTO 14004KT 1/4SM FG VV002 11/10 A3017 RMK AO2
SLP137 T01060100 10122 20106 55003





000
SAUS45 KABQ 291153
MTRABQ
METAR KABQ 291152Z 12005KT 10SM BKN075 BKN200 15/10 A3008 RMK AO2
SLP115 T01500100 10200 20150 55000





000
SAUS45 KABQ 291054
MTRCQC
METAR KCQC 291053Z AUTO 16003KT 1/4SM FG VV002 11/11 A3017 RMK AO2
SLP133 T01110106





000
SAUS45 KABQ 291054
MTRTCS
METAR KTCS 291053Z AUTO 03004KT 10SM CLR 15/12 A3004 RMK AO2 SLP098
T01500117 TSNO





000
SAUS45 KABQ 291053
MTRABQ
METAR KABQ 291052Z 00000KT 10SM FEW200 17/10 A3008 RMK AO2 SLP106
T01720100





000
SAUS45 KABQ 290954
MTRTCS
METAR KTCS 290953Z AUTO 23007KT 10SM CLR 18/11 A3004 RMK AO2 SLP092
T01780111 TSNO





000
SAUS45 KABQ 290954
MTRCQC
METAR KCQC 290953Z AUTO 18006KT 1/4SM FG VV002 12/11 A3017 RMK AO2
SLP133 T01170111





000
SAUS45 KABQ 290953
MTRABQ
METAR KABQ 290952Z 00000KT 10SM FEW200 17/10 A3008 RMK AO2 SLP108
T01670100





000
SAUS45 KABQ 290854
MTRTCS
METAR KTCS 290853Z AUTO 20006KT 10SM FEW070 18/11 A3005 RMK AO2
SLP093 T01830111 55003 TSNO





000
SAUS45 KABQ 290854
MTRCQC
METAR KCQC 290853Z AUTO 18010KT 1/2SM FG VV002 12/12 A3018 RMK AO2
SLP136 T01220117 58003





000
SAUS45 KABQ 290853
MTRABQ
METAR KABQ 290852Z 00000KT 10SM CLR 17/09 A3008 RMK AO2 SLP109
T01720094 50003





000
SAUS45 KABQ 290834
MTRCQC
SPECI KCQC 290833Z AUTO 18012KT 3/4SM BR VV002 12/11 A3019 RMK AO2
T01170111





000
SAUS45 KABQ 290822
MTRCQC
SPECI KCQC 290821Z AUTO 18009KT 1 3/4SM BR OVC002 12/11 A3019 RMK
AO2 T01170111





000
SAUS45 KABQ 290754
MTRTCS
METAR KTCS 290753Z AUTO 20006KT 10SM CLR 19/11 A3004 RMK AO2 SLP093
T01890111 TSNO





000
SAUS45 KABQ 290754
MTRCQC
METAR KCQC 290753Z AUTO 17007KT 7SM OVC002 12/11 A3019 RMK AO2
SLP135 T01220111





000
SAUS45 KABQ 290753
MTRABQ
METAR KABQ 290752Z 14004KT 10SM CLR 18/10 A3009 RMK AO2 SLP114
T01780100





000
SAUS45 KABQ 290654
MTRTCS
METAR KTCS 290653Z AUTO 19007KT 10SM CLR 19/11 A3005 RMK AO2 SLP098
T01940111 402780161 TSNO





000
SAUS45 KABQ 290654
MTRCQC
METAR KCQC 290653Z AUTO 18012KT 8SM OVC002 13/12 A3019 RMK AO2
SLP139 T01280117 402330100





000
SAUS45 KABQ 290652
MTRABQ
METAR KABQ 290652Z 18007KT 10SM CLR 19/10 A3008 RMK AO2 SLP110
T01940100 402720161





000
SAUS45 KABQ 290558 COR
MTRCQC
METAR KCQC 290553Z AUTO 17008KT 8SM OVC002 13/12 A3019 RMK AO2
SLP141 T01280117 10206 20128 58001





000
SAUS45 KABQ 290556 COR
MTRCQC
METAR KCQC 290553Z AUTO 17008KT 8SM OVC002 13/12 A3019 RMK AO2
SLP141 T01280117 10206 20128 58001





000
SAUS45 KABQ 290555 COR
MTRCQC
METAR KCQC 290553Z AUTO 17008KT 8SM OVC002 13/12 A3019 RMK AO2
SLP141 T01280117 10206 20128 58001





000
SAUS45 KABQ 290554
MTRCQC
METAR KCQC 290553Z AUTO 17008KT 8SM OVC002 13/12 A3019 RMK AO2
SLP141 T01280117 10206 20128 58001





000
SAUS45 KABQ 290554
MTRTCS
METAR KTCS 290553Z AUTO 20004KT 10SM CLR 20/11 A3005 RMK AO2 SLP099
T02000106 10267 20200 51002 TSNO





000
SAUS45 KABQ 290552
MTRABQ
METAR KABQ 290552Z 20007KT 10SM CLR 20/10 A3007 RMK AO2 SLP107
T02000100 10256 20189 52003





000
SAUS45 KABQ 290454
MTRCQC
METAR KCQC 290453Z AUTO 17011KT 10SM OVC003 13/12 A3020 RMK AO2
SLP145 T01280122





000
SAUS45 KABQ 290454
MTRTCS
METAR KTCS 290453Z AUTO 20005KT 10SM CLR 21/11 A3005 RMK AO2 SLP102
T02060106 TSNO





000
SAUS45 KABQ 290452
MTRABQ
METAR KABQ 290452Z 17011KT 10SM CLR 21/09 A3007 RMK AO2 SLP110
T02060094





000
SAUS45 KABQ 290354
MTRCQC
METAR KCQC 290353Z AUTO 16010KT 10SM OVC004 13/12 A3020 RMK AO2
SLP149 T01330122





000
SAUS45 KABQ 290354
MTRTCS
METAR KTCS 290353Z AUTO 19005KT 10SM CLR 21/11 A3005 RMK AO2 SLP105
T02110106 TSNO





000
SAUS45 KABQ 290353
MTRABQ
METAR KABQ 290352Z 15008KT 10SM FEW100 19/09 A3007 RMK AO2 SLP114
T01940094





000
SAUS45 KABQ 290322
MTRCQC
SPECI KCQC 290321Z AUTO 17013KT 10SM OVC004 13/12 A3020 RMK AO2
T01330122





000
SAUS45 KABQ 290311
MTRCQC
SPECI KCQC 290310Z AUTO 16011KT 10SM BKN005 13/12 A3020 RMK AO2
T01330122





000
SAUS45 KABQ 290254
MTRCQC
METAR KCQC 290253Z AUTO 17010KT 10SM FEW005 13/12 A3020 RMK AO2
SLP156 T01330117 51012





000
SAUS45 KABQ 290254
MTRTCS
METAR KTCS 290253Z AUTO 18005KT 10SM CLR 22/11 A3005 RMK AO2 SLP105
T02170106 53009 TSNO





000
SAUS45 KABQ 290253
MTRABQ
METAR KABQ 290252Z 12008KT 10SM FEW100 20/09 A3006 RMK AO2 SLP110
T02000094 52010





000
SAUS45 KABQ 290154
MTRCQC
METAR KCQC 290153Z AUTO 16012KT 10SM CLR 14/11 A3019 RMK AO2 SLP154
T01440111





000
SAUS45 KABQ 290154
MTRTCS
METAR KTCS 290153Z AUTO 19007KT 10SM CLR 24/10 A3003 RMK AO2 SLP097
T02390100 TSNO





000
SAUS45 KABQ 290153
MTRABQ
METAR KABQ 290152Z 18014G22KT 10SM FEW070 FEW100 23/08 A3005 RMK AO2
SLP103 T02280083





000
SAUS45 KABQ 290055
MTRCQC
METAR KCQC 290053Z AUTO 16016KT 10SM SCT050 17/11 A3017 RMK AO2
SLP143 T01670111





000
SAUS45 KABQ 290055
MTRTCS
METAR KTCS 290053Z AUTO 19010KT 10SM CLR 25/09 A3002 RMK AO2 SLP095
T02500089 TSNO





000
SAUS45 KABQ 290053
MTRABQ
METAR KABQ 290052Z 18013KT 10SM FEW070 FEW100 24/08 A3004 RMK AO2 PK
WND 17027/0024 SLP099 T02390083





000
SAUS45 KABQ 282355
MTRTCS
METAR KTCS 282353Z AUTO 21016KT 10SM CLR 27/08 A3002 RMK AO2 SLP086
60000 T02670083 10278 20239 55004 TSNO





000
SAUS45 KABQ 282354
MTRCQC
METAR KCQC 282353Z AUTO 20013G20KT 10SM CLR 21/06 A3015 RMK AO2
SLP130 T02060061 10233 20189 56003





000
SAUS45 KABQ 282352
MTRABQ
METAR KABQ 282352Z 18020KT 10SM FEW070 SCT100 26/08 A3003 RMK AO2 PK
WND 19028/2339 SLP091 T02610083 10272 20228 55005





000
SAUS45 KABQ 282254
MTRCQC
METAR KCQC 282253Z AUTO 18014KT 10SM FEW080 21/07 A3016 RMK AO2
SLP128 T02110072





000
SAUS45 KABQ 282254
MTRTCS
METAR KTCS 282253Z AUTO 19018G21KT 10SM CLR 27/08 A3001 RMK AO2
SLP082 T02720078 TSNO





000
SAUS45 KABQ 282253
MTRABQ
METAR KABQ 282252Z 19018G25KT 10SM SCT070 SCT100 27/08 A3003 RMK AO2
PK WND 17028/2202 SLP089 T02670078





000
SAUS45 KABQ 282154
MTRCQC
METAR KCQC 282153Z AUTO 20011KT 10SM FEW065 21/08 A3016 RMK AO2
SLP130 T02060078





000
SAUS45 KABQ 282154
MTRTCS
METAR KTCS 282153Z AUTO 20017G22KT 10SM OVC090 27/08 A3002 RMK AO2
RAE11 SLP086 P0000 T02720083 TSNO





000
SAUS45 KABQ 282153
MTRABQ
METAR KABQ 282152Z 19020G27KT 10SM SCT070 SCT100 27/08 A3003 RMK AO2
PK WND 20027/2151 SLP092 T02670078





000
SAUS45 KABQ 282059 COR
MTRCQC
METAR KCQC 282053Z AUTO 19015G25KT 10SM FEW046 FEW070 SCT090 21/09
A3017 RMK AO2 SLP132 T02110089 56017





000
SAUS45 KABQ 282056 COR
MTRCQC
METAR KCQC 282053Z AUTO 19015G25KT 10SM FEW046 FEW070 SCT090 21/09
A3017 RMK AO2 SLP132 T02110089 56017





000
SAUS45 KABQ 282055 COR
MTRCQC
METAR KCQC 282053Z AUTO 19015G25KT 10SM FEW046 FEW070 SCT090 21/09
A3017 RMK AO2 SLP132 T02110089 56017





000
SAUS45 KABQ 282055
MTRTCS
METAR KTCS 282053Z AUTO 18017G24KT 10SM -RA CLR 27/11 A3003 RMK AO2
PK WND 17027/2042 RAB12 SLP089 P0000 60000 T02720111 56017 TSNO





000
SAUS45 KABQ 282054
MTRCQC
METAR KCQC 282053Z AUTO 19015G25KT 10SM FEW046 FEW070 SCT090 21/09
A3017 RMK AO2 SLP132 T02110089 56017





000
SAUS45 KABQ 282053
MTRABQ
METAR KABQ 282052Z 19016G22KT 10SM SCT065 27/07 A3004 RMK AO2 SLP096
T02670067 58022





000
SAUS45 KABQ 281955
MTRCQC
METAR KCQC 281953Z AUTO 20018KT 10SM FEW040 SCT047 BKN090 22/09
A3018 RMK AO2 SLP136 T02220089





000
SAUS45 KABQ 281954
MTRTCS
METAR KTCS 281953Z AUTO 17015G21KT 10SM CLR 26/12 A3005 RMK AO2
SLP099 T02610117 TSNO





000
SAUS45 KABQ 281953
MTRABQ
METAR KABQ 281952Z 20009KT 10SM BKN055 24/09 A3008 RMK AO2 SLP111 CB
DSNT NW T02440094





000
SAUS45 KABQ 281854
MTRCQC
METAR KCQC 281853Z AUTO 21013KT 10SM SCT038 BKN048 OVC060 20/09
A3021 RMK AO2 SLP146 T02000094





000
SAUS45 KABQ 281854
MTRTCS
METAR KTCS 281853Z AUTO 16014KT 10SM CLR 25/13 A3007 RMK AO2 SLP108
T02500133 TSNO





000
SAUS45 KABQ 281853
MTRABQ
METAR KABQ 281852Z 20015G22KT 10SM BKN045 24/11 A3010 RMK AO2 SLP121
MTN TOP OBSC NE T02390106





000
SAUS45 KABQ 281759 COR
MTRCQC
METAR KCQC 281753Z AUTO 19015G25KT 10SM SCT031 BKN044 BKN085 19/09
A3023 RMK AO2 SLP155 T01890094 10194 20100 58001





000
SAUS45 KABQ 281756 COR
MTRCQC
METAR KCQC 281753Z AUTO 19015G25KT 10SM SCT031 BKN044 BKN085 19/09
A3023 RMK AO2 SLP155 T01890094 10194 20100 58001





000
SAUS45 KABQ 281755 COR
MTRCQC
METAR KCQC 281753Z AUTO 19015G25KT 10SM SCT031 BKN044 BKN085 19/09
A3023 RMK AO2 SLP155 T01890094 10194 20100 58001





000
SAUS45 KABQ 281754
MTRABQ
METAR KABQ 281752Z COR 20015G22KT 10SM FEW040 SCT065 BKN090 23/11
A3012 RMK AO2 SLP129 MTN TOP OBSC NE T02280111 10233 20172 50001





000
SAUS45 KABQ 281754
MTRTCS
METAR KTCS 281753Z AUTO 17011G19KT 10SM CLR 24/13 A3009 RMK AO2
SLP115 T02390133 10239 20161 58001 TSNO





000
SAUS45 KABQ 281754
MTRCQC
METAR KCQC 281753Z AUTO 19015G25KT 10SM SCT031 BKN044 BKN085 19/09
A3023 RMK AO2 SLP155 T01890094 10194 20100 58001





000
SAUS45 KABQ 281753
MTRABQ
METAR KABQ 281752Z 20015G22KT 10SM SCT065 BKN090 23/11 A3012 RMK AO2
SLP129 MTN TOP OBSC NE T02280111 10233 20172 50001





000
SAUS45 KABQ 281655
MTRCQC
METAR KCQC 281653Z AUTO 19016G20KT 10SM OVC075 18/09 A3023 RMK AO2
SLP160 T01780094





000
SAUS45 KABQ 281654
MTRTCS
METAR KTCS 281653Z AUTO 19009KT 10SM CLR 22/13 A3011 RMK AO2 SLP124
T02170133 TSNO





000
SAUS45 KABQ 281653
MTRABQ
METAR KABQ 281652Z 18010KT 10SM FEW040 BKN065 BKN120 21/11 A3014 RMK
AO2 SLP136 MTN TOP OBSC NE T02060106 $





000
SAUS45 KABQ 281611
MTRCQC
SPECI KCQC 281609Z AUTO 20014KT 10SM SCT019 OVC075 17/09 A3023 RMK
AO2 T01720094





000
SAUS45 KABQ 281554
MTRCQC
METAR KCQC 281553Z AUTO 18010KT 10SM SCT016 BKN021 BKN080 17/10
A3023 RMK AO2 SLP162 T01670100





000
SAUS45 KABQ 281554
MTRTCS
METAR KTCS 281553Z AUTO 14007KT 10SM CLR 20/13 A3011 RMK AO2 SLP125
T02000133 TSNO





000
SAUS45 KABQ 281552
MTRABQ
METAR KABQ 281552Z 27005KT 10SM SCT050 BKN070 BKN120 18/11 A3014 RMK
AO2 SLP139 MTN TOP OBSC NE T01830106 $





000
SAUS45 KABQ 281549
MTRCQC
SPECI KCQC 281548Z AUTO 20011KT 10SM FEW013 BKN018 OVC110 17/10
A3023 RMK AO2





000
SAUS45 KABQ 281540
MTRCQC
SPECI KCQC 281539Z AUTO 19009KT 10SM BKN013 BKN080 OVC110 15/10
A3023 RMK AO2 T01500100





000
SAUS45 KABQ 281454
MTRTCS
METAR KTCS 281453Z AUTO 16008KT 10SM SCT060 18/13 A3010 RMK AO2
SLP123 T01830128 53016 TSNO





000
SAUS45 KABQ 281454
MTRCQC
METAR KCQC 281453Z AUTO 16007KT 10SM FEW007 OVC095 13/10 A3022 RMK
AO2 SLP165 T01280100 53008





000
SAUS45 KABQ 281452
MTRABQ
METAR KABQ 281452Z 16006KT 10SM SCT050 BKN070 BKN120 18/10 A3012 RMK
AO2 SLP130 MTN TOP OBSC NE T01830100 51011 $





000
SAUS45 KABQ 281440
MTRCQC
SPECI KCQC 281438Z AUTO 17007KT 10SM FEW005 OVC095 12/10 A3021 RMK
AO2 T01220100





000
SAUS45 KABQ 281432
MTRCQC
SPECI KCQC 281431Z AUTO 16007KT 10SM BKN005 OVC095 12/11 A3021 RMK
AO2 CIG 004V008 T01220106





000
SAUS45 KABQ 281354
MTRCQC
METAR KCQC 281353Z AUTO 13006KT 10SM OVC002 11/10 A3020 RMK AO2
SLP159 T01110100





000
SAUS45 KABQ 281354
MTRTCS
METAR KTCS 281353Z AUTO 18004KT 10SM SCT060 17/13 A3008 RMK AO2
SLP117 T01670128 TSNO





000
SAUS45 KABQ 281352
MTRABQ
METAR KABQ 281352Z 18003KT 10SM FEW050 BKN080 BKN170 18/09 A3010 RMK
AO2 SLP123 TCU DSNT W SCSL NE-E MTN TOPS OBSC NE T01780094 $





000
SAUS45 KABQ 281349
MTRCQC
SPECI KCQC 281348Z AUTO 12007KT 8SM OVC002 11/10 A3020 RMK AO2





000
SAUS45 KABQ 281341
MTRCQC
SPECI KCQC 281340Z AUTO 14006KT 2SM BR OVC002 11/10 A3020 RMK AO2
T01060100





000
SAUS45 KABQ 281335
MTRCQC
SPECI KCQC 281334Z AUTO 15005KT 1SM BR VV002 11/10 A3020 RMK AO2
T01060100





000
SAUS45 KABQ 281319
MTRCQC
SPECI KCQC 281318Z AUTO 14006KT 1/4SM FG VV002 10/09 A3019 RMK AO2
T01000094





000
SAUS45 KABQ 281308
MTRCQC
SPECI KCQC 281306Z AUTO 13005KT 1/2SM FG VV002 11/09 A3019 RMK AO2
T01060094





000
SAUS45 KABQ 281258
MTRCQC
SPECI KCQC 281257Z AUTO 13005KT 1 3/4SM BR OVC002 11/10 A3018 RMK
AO2 T01060100





000
SAUS45 KABQ 281254
MTRCQC
METAR KCQC 281253Z AUTO 13006KT 4SM BR OVC002 11/10 A3018 RMK AO2
SLP148 T01060100





000
SAUS45 KABQ 281254
MTRTCS
METAR KTCS 281253Z AUTO 25003KT 10SM BKN065 16/12 A3006 RMK AO2
SLP108 T01610122 TSNO





000
SAUS45 KABQ 281252
MTRABQ
METAR KABQ 281252Z 26003KT 10SM FEW040 BKN090 BKN210 17/09 A3010 RMK
AO2 SLP119 MTNS OBSC NE AND SE T01720094 $





000
SAUS45 KABQ 281240
MTRCQC
SPECI KCQC 281238Z AUTO 13005KT 5SM BR OVC002 11/10 A3018 RMK AO2
T01060100





000
SAUS45 KABQ 281232
MTRCQC
SPECI KCQC 281231Z AUTO 12006KT 2 1/2SM BR OVC002 11/10 A3018 RMK
AO2 T01060100





000
SAUS45 KABQ 281225
MTRCQC
SPECI KCQC 281223Z AUTO 12005KT 1 3/4SM BR OVC002 11/10 A3018 RMK
AO2 VIS 1 1/4V3 T01060100





000
SAUS45 KABQ 281154
MTRCQC
METAR KCQC 281153Z AUTO 13005KT 1/2SM FG VV002 11/10 A3018 RMK AO2
SLP138 T01060100 10117 20106 55001





000
SAUS45 KABQ 281154
MTRTCS
METAR KTCS 281153Z AUTO 17003KT 10SM BKN070 17/12 A3004 RMK AO2
SLP098 60000 T01720122 10183 20167 56005 TSNO





000
SAUS45 KABQ 281152
MTRABQ
METAR KABQ 281152Z 13004KT 10SM FEW040 BKN095 OVC210 17/09 A3008 RMK
AO2 SLP109 MTNS OBSC NE-SE T01720094 10183 20161 56000 $





000
SAUS45 KABQ 281055
MTRCQC
METAR KCQC 281053Z AUTO 13006KT 1/4SM FG VV002 11/10 A3017 RMK AO2
SLP131 T01060100





000
SAUS45 KABQ 281054
MTRTCS
METAR KTCS 281053Z AUTO 00000KT 10SM FEW060 SCT080 BKN110 18/12
A3005 RMK AO2 SLP098 T01830117 TSNO





000
SAUS45 KABQ 281052
MTRABQ
METAR KABQ 281052Z 18003KT 10SM FEW050 BKN100 BKN210 17/09 A3008 RMK
AO2 SLP110 MTNS OBSC E T01720089 $





000
SAUS45 KABQ 281039
MTRCQC
SPECI KCQC 281037Z AUTO 16006KT 3/4SM BR VV002 11/11 A3018 RMK AO2
T01110106





000
SAUS45 KABQ 281031
MTRCQC
SPECI KCQC 281030Z AUTO 15004KT 1 1/4SM BR OVC002 11/11 A3018 RMK
AO2 T01110106





000
SAUS45 KABQ 281023
MTRCQC
SPECI KCQC 281022Z AUTO 15004KT 2SM BR OVC002 11/11 A3018 RMK AO2
VIS 1 1/2V3 T01110106





000
SAUS45 KABQ 280954
MTRTCS
METAR KTCS 280953Z AUTO 00000KT 10SM BKN060 BKN110 18/12 A3005 RMK
AO2 SLP099 T01830122 TSNO





000
SAUS45 KABQ 280954
MTRCQC
METAR KCQC 280953Z AUTO 16006KT 1/2SM FG VV002 11/10 A3018 RMK AO2
SLP131 T01110100





000
SAUS45 KABQ 280952
MTRABQ
METAR KABQ 280952Z 13006KT 10SM FEW080 BKN150 BKN230 17/09 A3008 RMK
AO2 SLP110 T01670089 $





000
SAUS45 KABQ 280946
MTRCQC
SPECI KCQC 280944Z AUTO 17005KT 3/4SM BR VV002 11/10 A3018 RMK AO2
T01110100





000
SAUS45 KABQ 280935
MTRCQC
SPECI KCQC 280934Z AUTO 17007KT 1 3/4SM BR OVC002 11/10 A3018 RMK
AO2 T01110100





000
SAUS45 KABQ 280926
MTRCQC
SPECI KCQC 280924Z AUTO 17007KT 3SM BR OVC002 11/11 A3018 RMK AO2
T01110106





000
SAUS45 KABQ 280915
MTRCQC
SPECI KCQC 280914Z AUTO 16008KT 1 3/4SM BR OVC002 11/11 A3018 RMK
AO2 T01110106





000
SAUS45 KABQ 280854
MTRTCS
METAR KTCS 280853Z AUTO 00000KT 10SM BKN110 18/12 A3006 RMK AO2
RAB16E25 SLP103 P0000 60000 T01780122 55001 TSNO





000
SAUS45 KABQ 280854
MTRCQC
METAR KCQC 280853Z AUTO 16005KT 8SM OVC002 11/11 A3018 RMK AO2
SLP132 T01110106 50001





000
SAUS45 KABQ 280852
MTRABQ
METAR KABQ 280852Z 12007KT 10SM FEW080 SCT140 SCT230 17/09 A3008 RMK
AO2 SLP112 T01670089 50001 $





000
SAUS45 KABQ 280755
MTRTCS
METAR KTCS 280753Z AUTO 12003KT 10SM FEW100 17/12 A3006 RMK AO2
SLP103 T01720117 TSNO





000
SAUS45 KABQ 280754
MTRCQC
METAR KCQC 280753Z AUTO 17008KT 5SM BR BKN002 11/11 A3019 RMK AO2
SLP139 T01110106





000
SAUS45 KABQ 280752
MTRABQ
METAR KABQ 280752Z 11005KT 10SM SCT130 SCT250 17/09 A3009 RMK AO2
SLP116 T01670089 $





000
SAUS45 KABQ 280655
MTRCQC
METAR KCQC 280653Z AUTO 16007KT 8SM BKN002 12/11 A3018 RMK AO2
SLP134 T01170106 402330089





000
SAUS45 KABQ 280654
MTRTCS
METAR KTCS 280653Z AUTO 12004KT 10SM CLR 17/12 A3005 RMK AO2 SLP105
T01670117 402560150 TSNO





000
SAUS45 KABQ 280652
MTRABQ
METAR KABQ 280652Z 16009KT 10SM FEW130 FEW250 17/09 A3008 RMK AO2
SLP112 T01720089 402610150 $





000
SAUS45 KABQ 280637
MTRCQC
SPECI KCQC 280636Z AUTO 17009KT 7SM OVC002 12/11 A3018 RMK AO2
T01170111





000
SAUS45 KABQ 280629
MTRCQC
SPECI KCQC 280628Z AUTO 17012KT 2 1/2SM BR OVC002 12/11 A3018 RMK
AO2 T01170111





000
SAUS45 KABQ 280620
MTRCQC
SPECI KCQC 280618Z AUTO 17011KT 3SM BR OVC002 12/11 A3018 RMK AO2
T01170111





000
SAUS45 KABQ 280609
MTRCQC
SPECI KCQC 280608Z AUTO 18012KT 1 3/4SM BR OVC002 12/11 A3018 RMK
AO2 T01170111





000
SAUS45 KABQ 280554
MTRTCS
METAR KTCS 280553Z AUTO 00000KT 10SM CLR 18/12 A3006 RMK AO2 SLP108
T01830122 10244 20172 51013 TSNO





000
SAUS45 KABQ 280554
MTRCQC
METAR KCQC 280553Z AUTO 17012KT 1SM BR VV002 12/11 A3018 RMK AO2
SLP135 T01170111 10206 20111 53001





000
SAUS45 KABQ 280553
MTRCQC
SPECI KCQC 280551Z AUTO 17011KT 1 1/4SM BR OVC002 12/11 A3018 RMK
AO2





000
SAUS45 KABQ 280552
MTRABQ
METAR KABQ 280552Z 15006KT 10SM FEW250 17/08 A3008 RMK AO2 SLP113
T01720078 10256 20172 51010 $





000
SAUS45 KABQ 280539
MTRCQC
SPECI KCQC 280538Z AUTO 17012KT 2SM BR OVC002 12/11 A3018 RMK AO2
T01170111





000
SAUS45 KABQ 280531
MTRCQC
SPECI KCQC 280529Z AUTO 17011KT 1 1/2SM BR OVC002 12/11 A3018 RMK
AO2 T01170111





000
SAUS45 KABQ 280520
MTRCQC
SPECI KCQC 280519Z AUTO 17014KT 1SM BR VV002 12/11 A3018 RMK AO2
T01170111





000
SAUS45 KABQ 280505
MTRCQC
SPECI KCQC 280504Z AUTO 17011KT 2 1/2SM BR OVC002 12/11 A3018 RMK
AO2 T01170111





000
SAUS45 KABQ 280454
MTRTCS
METAR KTCS 280453Z AUTO 25004KT 10SM FEW090 19/12 A3005 RMK AO2
SLP106 T01890117 TSNO





000
SAUS45 KABQ 280454
MTRCQC
METAR KCQC 280453Z AUTO 17011KT 4SM BR OVC002 12/11 A3017 RMK AO2
SLP139 T01170111





000
SAUS45 KABQ 280452
MTRABQ
METAR KABQ 280452Z 15008KT 10SM FEW250 18/08 A3006 RMK AO2 SLP111
T01830078 $





000
SAUS45 KABQ 280405
MTRCQC
SPECI KCQC 280404Z AUTO 17014KT 10SM BKN004 12/11 A3017 RMK AO2
T01170111





000
SAUS45 KABQ 280354
MTRCQC
METAR KCQC 280353Z AUTO 17013KT 10SM SCT004 12/11 A3017 RMK AO2
SLP142 T01170106





000
SAUS45 KABQ 280354
MTRTCS
METAR KTCS 280353Z AUTO 16005KT 10SM CLR 19/11 A3004 RMK AO2 SLP103
T01940111 TSNO





000
SAUS45 KABQ 280353
MTRABQ
METAR KABQ 280352Z 15009KT 10SM FEW250 19/09 A3006 RMK AO2 SLP111
T01890089 $





000
SAUS45 KABQ 280254
MTRCQC
METAR KCQC 280253Z AUTO 17011KT 10SM CLR 12/11 A3016 RMK AO2 SLP139
T01220106 51014





000
SAUS45 KABQ 280254
MTRTCS
METAR KTCS 280253Z AUTO 16005KT 10SM CLR 21/11 A3002 RMK AO2 SLP097
T02060106 53009 TSNO





000
SAUS45 KABQ 280253
MTRABQ
METAR KABQ 280252Z 16006KT 10SM FEW120 SCT250 21/08 A3004 RMK AO2
SLP106 T02060083 53017 $





000
SAUS45 KABQ 280154
MTRTCS
METAR KTCS 280153Z AUTO 15009KT 10SM CLR 22/11 A3000 RMK AO2 SLP090
T02170106 TSNO





000
SAUS45 KABQ 280154
MTRCQC
METAR KCQC 280153Z AUTO 16013KT 10SM CLR 14/10 A3014 RMK AO2 SLP139
T01390100





000
SAUS45 KABQ 280153
MTRABQ
METAR KABQ 280152Z 17012KT 10SM FEW120 SCT250 22/08 A3002 RMK AO2
SLP095 T02220083 $





000
SAUS45 KABQ 280054
MTRCQC
METAR KCQC 280053Z AUTO 16014KT 10SM CLR 17/11 A3013 RMK AO2 SLP134
T01670106





000
SAUS45 KABQ 280054
MTRTCS
METAR KTCS 280053Z AUTO 18011KT 10SM CLR 23/11 A2999 RMK AO2 SLP085
T02330106 TSNO





000
SAUS45 KABQ 280053
MTRABQ
METAR KABQ 280052Z 19013KT 10SM FEW060 FEW160 SCT250 24/08 A3000 RMK
AO2 SLP086 T02390078 $





    US Dept of Commerce
    National Oceanic and Atmospheric Administration
    National Weather Service
    1325 East West Highway
    Silver Spring, MD 20910
    Page Author: NWS Internet Services Team
Disclaimer
Information Quality
Credits
Glossary
Privacy Policy
Freedom of Information Act (FOIA)
About Us
Career Opportunities